createdAt,value
2018-07-11T00:00:13.059Z,66.10
2018-07-11T00:02:41.478Z,66.10
2018-07-11T00:05:09.958Z,66.10
2018-07-11T00:07:39.077Z,66.10
2018-07-11T00:10:07.977Z,66.90
2018-07-11T00:12:37.112Z,66.10
2018-07-11T00:15:05.682Z,66.80
2018-07-11T00:17:34.014Z,66.10
2018-07-11T00:20:02.444Z,66.10
2018-07-11T00:22:30.874Z,65.90
2018-07-11T00:24:59.309Z,66.00
2018-07-11T00:27:27.739Z,66.00
2018-07-11T00:29:56.391Z,65.90
2018-07-11T00:32:24.812Z,66.00
2018-07-11T00:34:53.248Z,66.00
2018-07-11T00:37:21.803Z,66.10
2018-07-11T00:39:50.146Z,66.00
2018-07-11T00:42:18.586Z,66.00
2018-07-11T00:44:47.009Z,66.00
2018-07-11T00:47:15.450Z,66.00
2018-07-11T00:49:43.907Z,66.00
2018-07-11T00:52:12.347Z,65.90
2018-07-11T00:54:40.777Z,66.00
2018-07-11T00:57:09.353Z,66.00
2018-07-11T00:59:41.404Z,66.00
2018-07-11T01:02:09.850Z,66.00
2018-07-11T01:04:39.490Z,66.00
2018-07-11T01:07:08.729Z,66.00
2018-07-11T01:09:45.542Z,66.00
2018-07-11T01:12:13.978Z,66.00
2018-07-11T01:14:42.690Z,66.10
2018-07-11T01:17:16.814Z,66.10
2018-07-11T01:19:47.006Z,66.10
2018-07-11T01:22:15.696Z,66.10
2018-07-11T01:24:44.120Z,66.10
2018-07-11T01:27:12.557Z,66.10
2018-07-11T01:29:41.005Z,66.10
2018-07-11T01:32:10.150Z,66.00
2018-07-11T01:34:39.652Z,66.10
2018-07-11T01:37:09.097Z,66.10
2018-07-11T01:39:37.921Z,66.10
2018-07-11T01:42:07.158Z,66.00
2018-07-11T01:44:35.590Z,66.00
2018-07-11T01:47:04.032Z,65.90
2018-07-11T01:49:32.461Z,66.00
2018-07-11T01:52:12.196Z,66.80
2018-07-11T01:54:40.781Z,66.10
2018-07-11T01:57:09.298Z,66.00
2018-07-11T01:59:38.902Z,66.10
2018-07-11T02:02:08.087Z,66.10
2018-07-11T02:04:38.659Z,66.70
2018-07-11T02:07:07.991Z,66.10
2018-07-11T02:09:37.052Z,66.10
2018-07-11T02:12:05.904Z,66.10
2018-07-11T02:14:35.372Z,66.10
2018-07-11T02:17:04.125Z,66.10
2018-07-11T02:19:32.575Z,66.10
2018-07-11T02:22:01.016Z,66.20
2018-07-11T02:24:29.458Z,66.10
2018-07-11T02:26:57.886Z,66.10
2018-07-11T02:29:26.366Z,66.10
2018-07-11T02:31:54.793Z,66.10
2018-07-11T02:34:28.602Z,66.10
2018-07-11T02:36:57.029Z,66.10
2018-07-11T02:39:25.512Z,66.10
2018-07-11T02:41:53.926Z,66.10
2018-07-11T02:44:22.370Z,66.10
2018-07-11T02:46:56.116Z,66.10
2018-07-11T02:49:24.559Z,66.10
2018-07-11T02:51:53.210Z,66.00
2018-07-11T02:54:21.630Z,66.10
2018-07-11T02:56:50.067Z,66.60
2018-07-11T02:59:18.485Z,66.00
2018-07-11T03:01:47.042Z,66.20
2018-07-11T03:04:15.489Z,66.00
2018-07-11T03:06:43.923Z,66.10
2018-07-11T03:09:12.387Z,66.00
2018-07-11T03:11:40.814Z,66.00
2018-07-11T03:14:09.955Z,66.10
2018-07-11T03:16:39.322Z,66.10
2018-07-11T03:19:08.827Z,66.00
2018-07-11T03:21:37.962Z,66.10
2018-07-11T03:24:07.088Z,66.00
2018-07-11T03:26:35.539Z,66.10
2018-07-11T03:29:03.973Z,66.10
2018-07-11T03:31:32.401Z,66.10
2018-07-11T03:34:00.836Z,66.10
2018-07-11T03:36:29.378Z,66.10
2018-07-11T03:41:27.455Z,67.00
2018-07-11T03:43:56.213Z,66.10
2018-07-11T03:46:24.786Z,66.10
2018-07-11T03:48:53.241Z,66.10
2018-07-11T03:51:21.662Z,66.10
2018-07-11T03:53:50.224Z,66.10
2018-07-11T03:56:18.645Z,66.10
2018-07-11T03:58:47.479Z,66.10
2018-07-11T04:01:15.933Z,66.10
2018-07-11T04:03:44.375Z,66.10
2018-07-11T04:06:12.830Z,66.10
2018-07-11T04:08:41.481Z,66.10
2018-07-11T04:11:09.952Z,66.10
2018-07-11T04:13:39.340Z,66.10
2018-07-11T04:16:09.051Z,66.10
2018-07-11T04:18:37.981Z,66.10
2018-07-11T04:21:07.507Z,66.00
2018-07-11T04:23:36.019Z,66.10
2018-07-11T04:26:04.633Z,66.00
2018-07-11T04:28:33.062Z,66.10
2018-07-11T04:31:01.519Z,66.10
2018-07-11T04:33:30.271Z,66.10
2018-07-11T04:35:58.709Z,66.00
2018-07-11T04:38:27.153Z,66.10
2018-07-11T04:40:55.610Z,66.10
2018-07-11T04:43:26.486Z,66.00
2018-07-11T04:45:55.213Z,66.00
2018-07-11T04:48:23.838Z,66.40
2018-07-11T04:50:53.022Z,66.00
2018-07-11T04:53:23.702Z,66.00
2018-07-11T04:55:55.360Z,66.00
2018-07-11T04:58:24.435Z,66.00
2018-07-11T05:00:52.973Z,66.00
2018-07-11T05:03:21.405Z,66.00
2018-07-11T05:05:50.190Z,65.90
2018-07-11T05:08:25.269Z,66.00
2018-07-11T05:10:54.082Z,66.00
2018-07-11T05:13:22.809Z,66.00
2018-07-11T05:15:52.460Z,65.90
2018-07-11T05:18:20.937Z,66.00
2018-07-11T05:20:49.375Z,66.00
2018-07-11T05:23:17.799Z,66.00
2018-07-11T05:25:46.389Z,66.00
2018-07-11T05:28:14.811Z,66.00
2018-07-11T05:30:43.306Z,66.00
2018-07-11T05:33:11.755Z,66.00
2018-07-11T05:35:40.189Z,66.00
2018-07-11T05:38:09.602Z,66.00
2018-07-11T05:40:39.501Z,66.00
2018-07-11T05:43:08.066Z,66.00
2018-07-11T05:45:37.208Z,66.70
2018-07-11T05:48:05.680Z,65.90
2018-07-11T05:50:34.121Z,65.90
2018-07-11T05:53:02.573Z,66.00
2018-07-11T05:55:31.014Z,66.70
2018-07-11T05:57:59.476Z,65.90
2018-07-11T06:00:27.912Z,66.00
2018-07-11T06:02:56.345Z,65.90
2018-07-11T06:05:24.828Z,65.90
2018-07-11T06:07:53.264Z,66.70
2018-07-11T06:10:21.713Z,65.90
2018-07-11T06:15:18.361Z,65.80
2018-07-11T06:17:46.802Z,65.80
2018-07-11T06:20:15.283Z,65.40
2018-07-11T06:22:43.673Z,65.80
2018-07-11T06:25:12.128Z,65.80
2018-07-11T06:27:40.563Z,65.80
2018-07-11T06:30:10.082Z,65.80
2018-07-11T06:32:39.037Z,65.80
2018-07-11T06:35:07.939Z,65.80
2018-07-11T06:37:37.182Z,65.80
2018-07-11T06:40:05.752Z,65.80
2018-07-11T06:42:34.521Z,65.80
2018-07-11T06:45:02.985Z,65.80
2018-07-11T06:47:31.422Z,65.70
2018-07-11T06:49:59.906Z,65.70
2018-07-11T06:52:28.355Z,65.70
2018-07-11T06:54:56.947Z,65.70
2018-07-11T06:57:25.532Z,66.10
2018-07-11T06:59:53.968Z,65.80
2018-07-11T07:02:22.406Z,65.70
2018-07-11T07:04:50.850Z,65.70
2018-07-11T07:07:19.401Z,66.50
2018-07-11T07:09:47.841Z,65.70
2018-07-11T07:12:16.415Z,65.70
2018-07-11T07:14:44.893Z,65.90
2018-07-11T07:17:13.321Z,65.70
2018-07-11T07:19:41.766Z,65.70
2018-07-11T07:22:10.199Z,65.70
2018-07-11T07:24:40.039Z,65.70
2018-07-11T07:27:09.453Z,65.70
2018-07-11T07:29:39.369Z,65.70
2018-07-11T07:32:08.848Z,65.70
2018-07-11T07:34:37.920Z,65.70
2018-07-11T07:37:07.211Z,65.70
2018-07-11T07:39:35.658Z,65.70
2018-07-11T07:42:04.086Z,65.70
2018-07-11T07:44:32.533Z,65.70
2018-07-11T07:47:01.637Z,65.60
2018-07-11T07:49:31.435Z,65.50
2018-07-11T07:52:00.346Z,65.50
2018-07-11T07:54:29.533Z,65.60
2018-07-11T07:56:57.966Z,65.50
2018-07-11T07:59:26.689Z,65.90
2018-07-11T08:01:55.604Z,65.40
2018-07-11T08:04:24.272Z,65.50
2018-07-11T08:06:53.132Z,65.50
2018-07-11T08:09:21.538Z,65.50
2018-07-11T08:11:49.976Z,65.50
2018-07-11T08:14:18.713Z,65.50
2018-07-11T08:16:47.509Z,65.50
2018-07-11T08:19:15.936Z,65.50
2018-07-11T08:21:44.362Z,65.60
2018-07-11T08:24:24.316Z,65.60
2018-07-11T08:28:04.869Z,65.60
2018-07-11T08:30:45.099Z,65.60
2018-07-11T08:33:23.866Z,65.60
2018-07-11T08:36:22.044Z,65.60
2018-07-11T08:41:04.612Z,65.60
2018-07-11T08:46:46.237Z,65.60
2018-07-11T08:49:26.045Z,65.70
2018-07-11T08:52:42.774Z,65.80
2018-07-11T08:58:29.853Z,65.80
2018-07-11T09:01:15.282Z,65.90
2018-07-11T09:04:01.799Z,65.90
2018-07-11T09:06:52.671Z,66.00
2018-07-11T09:09:32.446Z,66.00
2018-07-11T09:14:14.569Z,65.80
2018-07-11T09:16:48.769Z,65.80
2018-07-11T09:19:27.453Z,65.80
2018-07-11T09:22:20.470Z,65.80
2018-07-11T09:24:50.040Z,65.80
2018-07-11T09:27:18.641Z,65.70
2018-07-11T09:29:47.731Z,65.80
2018-07-11T09:32:16.425Z,65.80
2018-07-11T09:34:45.306Z,65.60
2018-07-11T09:37:13.911Z,65.60
2018-07-11T09:39:42.891Z,65.50
2018-07-11T09:42:11.340Z,65.50
2018-07-11T09:44:39.841Z,65.50
2018-07-11T09:47:14.433Z,65.40
2018-07-11T09:49:42.936Z,65.30
2018-07-11T09:52:11.416Z,66.20
2018-07-11T09:54:39.821Z,65.30
2018-07-11T09:57:08.954Z,65.30
2018-07-11T09:59:38.033Z,65.30
2018-07-11T10:02:07.049Z,65.20
2018-07-11T10:04:35.504Z,65.30
2018-07-11T10:07:04.921Z,65.30
2018-07-11T10:09:33.364Z,65.20
2018-07-11T10:12:01.869Z,65.20
2018-07-11T10:14:30.277Z,65.10
2018-07-11T10:16:58.693Z,65.10
2018-07-11T10:19:27.116Z,65.90
2018-07-11T10:21:55.594Z,65.00
2018-07-11T10:24:24.016Z,65.00
2018-07-11T10:26:52.628Z,65.10
2018-07-11T10:29:21.098Z,64.90
2018-07-11T10:31:49.549Z,65.00
2018-07-11T10:34:17.977Z,65.00
2018-07-11T10:36:46.425Z,64.80
2018-07-11T10:39:14.843Z,64.80
2018-07-11T10:41:43.296Z,65.00
2018-07-11T10:44:11.731Z,64.90
2018-07-11T10:46:40.162Z,64.80
2018-07-11T10:49:09.307Z,64.80
2018-07-11T10:51:38.782Z,64.80
2018-07-11T10:54:08.107Z,64.80
2018-07-11T10:56:37.041Z,64.70
2018-07-11T10:59:05.464Z,64.70
2018-07-11T11:01:33.975Z,64.70
2018-07-11T11:04:02.350Z,64.70
2018-07-11T11:06:30.786Z,64.60
2018-07-11T11:08:59.208Z,64.60
2018-07-11T11:11:27.639Z,64.50
2018-07-11T11:13:56.059Z,64.40
2018-07-11T11:16:24.517Z,64.40
2018-07-11T11:18:52.929Z,64.40
2018-07-11T11:21:21.336Z,64.40
2018-07-11T11:23:49.753Z,64.40
2018-07-11T11:26:18.181Z,64.40
2018-07-11T11:28:46.603Z,64.30
2018-07-11T11:31:15.033Z,64.30
2018-07-11T11:33:43.481Z,64.40
2018-07-11T11:36:11.905Z,64.30
2018-07-11T11:38:40.831Z,64.30
2018-07-11T11:41:10.730Z,64.30
2018-07-11T11:43:39.411Z,64.30
2018-07-11T11:46:08.874Z,64.10
2018-07-11T11:48:38.108Z,64.30
2018-07-11T11:51:07.348Z,65.10
2018-07-11T11:53:35.806Z,64.20
2018-07-11T11:56:04.248Z,64.20
2018-07-11T11:58:32.737Z,64.20
2018-07-11T12:01:01.158Z,64.20
2018-07-11T12:03:29.596Z,64.20
2018-07-11T12:05:58.105Z,64.30
2018-07-11T12:08:26.532Z,64.30
2018-07-11T12:10:54.959Z,64.40
2018-07-11T12:13:23.389Z,64.40
2018-07-11T12:15:51.815Z,64.50
2018-07-11T12:18:20.250Z,64.40
2018-07-11T12:20:48.707Z,64.40
2018-07-11T12:23:17.148Z,64.40
2018-07-11T12:25:59.797Z,64.50
2018-07-11T12:28:28.226Z,64.60
2018-07-11T12:30:56.680Z,64.60
2018-07-11T12:33:25.254Z,64.70
2018-07-11T12:35:53.639Z,64.70
2018-07-11T12:38:22.076Z,64.80
2018-07-11T12:40:50.510Z,64.80
2018-07-11T12:43:18.944Z,64.80
2018-07-11T12:45:47.387Z,64.80
2018-07-11T12:48:21.139Z,64.90
2018-07-11T12:50:49.561Z,64.90
2018-07-11T12:53:18.011Z,64.90
2018-07-11T12:55:46.685Z,64.90
2018-07-11T12:58:16.310Z,65.00
2018-07-11T13:00:44.738Z,65.00
2018-07-11T13:03:13.174Z,65.00
2018-07-11T13:05:41.601Z,65.00
2018-07-11T13:08:10.023Z,65.10
2018-07-11T13:10:39.406Z,65.10
2018-07-11T13:13:08.893Z,65.10
2018-07-11T13:15:38.027Z,65.10
2018-07-11T13:18:07.159Z,65.20
2018-07-11T13:20:35.606Z,65.20
2018-07-11T13:23:04.037Z,65.20
2018-07-11T13:25:32.467Z,65.20
2018-07-11T13:28:00.910Z,65.20
2018-07-11T13:30:29.330Z,65.20
2018-07-11T13:32:57.768Z,65.30
2018-07-11T13:35:26.310Z,65.30
2018-07-11T13:37:54.783Z,65.30
2018-07-11T13:40:23.360Z,65.40
2018-07-11T13:42:51.789Z,65.30
2018-07-11T13:45:20.192Z,65.40
2018-07-11T13:47:52.825Z,65.40
2018-07-11T13:50:21.269Z,65.20
2018-07-11T13:52:49.751Z,66.00
2018-07-11T13:55:18.183Z,65.40
2018-07-11T13:57:46.582Z,65.30
2018-07-11T14:00:15.014Z,65.40
2018-07-11T14:02:43.442Z,65.20
2018-07-11T14:05:11.902Z,65.20
2018-07-11T14:07:40.326Z,65.40
2018-07-11T14:10:09.747Z,65.40
2018-07-11T14:12:39.164Z,65.20
2018-07-11T14:15:08.472Z,65.40
2018-07-11T14:17:37.803Z,65.20
2018-07-11T14:20:07.959Z,65.40
2018-07-11T14:22:39.967Z,65.20
2018-07-11T14:25:08.679Z,65.40
2018-07-11T14:27:41.997Z,65.20
2018-07-11T14:30:11.164Z,65.30
2018-07-11T14:32:46.171Z,65.20
2018-07-11T14:35:15.789Z,65.20
2018-07-11T14:37:45.439Z,65.20
2018-07-11T14:40:15.124Z,66.00
2018-07-11T14:42:46.344Z,65.20
2018-07-11T14:45:15.945Z,65.20
2018-07-11T14:47:52.868Z,65.20
2018-07-11T14:50:22.564Z,65.20
2018-07-11T14:52:51.557Z,65.10
2018-07-11T14:55:20.061Z,65.10
2018-07-11T14:57:49.036Z,65.10
2018-07-11T15:02:46.987Z,65.20
2018-07-11T15:05:15.541Z,65.10
2018-07-11T15:07:44.608Z,65.00
2018-07-11T15:10:13.134Z,65.20
2018-07-11T15:12:41.822Z,65.20
2018-07-11T15:15:10.432Z,65.00
2018-07-11T15:17:40.077Z,65.10
2018-07-11T15:20:09.369Z,65.10
2018-07-11T15:22:38.929Z,65.20
2018-07-11T15:25:07.963Z,65.10
2018-07-11T15:27:37.293Z,65.20
2018-07-11T15:30:05.775Z,65.10
2018-07-11T15:32:34.466Z,65.10
2018-07-11T15:35:03.395Z,65.20
2018-07-11T15:37:32.133Z,65.20
2018-07-11T15:40:02.605Z,65.10
2018-07-11T15:42:31.572Z,65.10
2018-07-11T15:45:00.038Z,65.10
2018-07-11T15:47:29.085Z,65.10
2018-07-11T15:49:58.193Z,65.20
2018-07-11T15:52:26.826Z,65.10
2018-07-11T15:54:57.915Z,65.10
2018-07-11T15:57:31.908Z,65.10
2018-07-11T16:00:08.761Z,65.10
2018-07-11T16:02:46.258Z,65.00
2018-07-11T16:05:18.388Z,65.10
2018-07-11T16:07:51.806Z,65.10
2018-07-11T16:10:28.270Z,65.00
2018-07-11T16:12:56.994Z,65.20
2018-07-11T16:15:25.747Z,65.70
2018-07-11T16:17:54.395Z,65.10
2018-07-11T16:20:23.038Z,65.10
2018-07-11T16:22:51.753Z,65.20
2018-07-11T16:25:20.515Z,65.20
2018-07-11T16:27:49.890Z,65.20
2018-07-11T16:30:18.504Z,65.20
2018-07-11T16:32:46.951Z,65.20
2018-07-11T16:35:15.836Z,65.40
2018-07-11T16:37:44.423Z,65.20
2018-07-11T16:40:13.195Z,65.40
2018-07-11T16:42:42.061Z,65.30
2018-07-11T16:45:10.571Z,65.40
2018-07-11T16:47:40.046Z,65.40
2018-07-11T16:50:09.437Z,65.40
2018-07-11T16:52:39.966Z,65.40
2018-07-11T16:55:09.733Z,65.40
2018-07-11T16:57:45.454Z,65.50
2018-07-11T17:00:14.160Z,65.50
2018-07-11T17:02:43.965Z,65.50
2018-07-11T17:05:16.314Z,65.60
2018-07-11T17:07:50.880Z,65.50
2018-07-11T17:10:21.023Z,65.50
2018-07-11T17:12:52.080Z,65.60
2018-07-11T17:17:53.875Z,65.70
2018-07-11T17:20:23.990Z,65.60
2018-07-11T17:22:56.333Z,65.70
2018-07-11T17:25:29.542Z,65.80
2018-07-11T17:28:01.402Z,65.70
2018-07-11T17:30:45.372Z,65.80
2018-07-11T17:33:14.433Z,65.80
2018-07-11T17:35:50.749Z,65.80
2018-07-11T17:38:24.300Z,65.80
2018-07-11T17:40:53.734Z,65.80
2018-07-11T17:43:35.756Z,65.80
2018-07-11T17:46:05.313Z,65.80
2018-07-11T17:48:43.116Z,65.80
2018-07-11T17:52:20.759Z,65.80
2018-07-11T17:55:14.060Z,65.90
2018-07-11T17:57:49.038Z,65.90
2018-07-11T18:00:28.774Z,65.90
2018-07-11T18:05:36.734Z,65.90
2018-07-11T18:08:10.492Z,65.90
2018-07-11T18:13:28.196Z,65.90
2018-07-11T18:16:10.696Z,65.90
2018-07-11T18:19:03.805Z,65.90
2018-07-11T18:21:40.899Z,65.90
2018-07-11T18:24:29.134Z,65.90
2018-07-11T18:28:07.191Z,66.00
2018-07-11T18:31:23.145Z,66.10
2018-07-11T18:36:08.581Z,66.10
2018-07-11T18:39:47.512Z,66.10
2018-07-11T18:42:31.528Z,66.10
2018-07-11T18:47:24.507Z,66.20
2018-07-11T18:52:08.469Z,66.20
2018-07-11T19:02:07.219Z,66.60
2018-07-11T19:07:14.626Z,66.40
2018-07-11T19:09:46.437Z,66.40
2018-07-11T19:12:37.607Z,66.30
2018-07-11T19:15:07.964Z,66.30
2018-07-11T19:18:06.125Z,66.30
2018-07-11T19:21:46.740Z,66.40
2018-07-11T19:24:18.615Z,66.20
2018-07-11T19:27:01.189Z,66.30
2018-07-11T19:30:08.951Z,66.20
2018-07-11T19:33:21.289Z,66.20
2018-07-11T19:38:04.662Z,65.60
2018-07-11T19:40:51.205Z,66.10
2018-07-11T19:43:30.765Z,66.10
2018-07-11T19:46:13.202Z,66.20
2018-07-11T19:49:53.733Z,66.20
2018-07-11T19:52:30.940Z,66.20
2018-07-11T19:55:34.833Z,66.10
2018-07-11T19:58:03.344Z,66.10
2018-07-11T20:00:31.774Z,66.10
2018-07-11T20:03:00.203Z,66.10
2018-07-11T20:05:28.763Z,66.10
2018-07-11T20:07:57.195Z,66.10
2018-07-11T20:10:25.772Z,66.10
2018-07-11T20:12:54.254Z,66.10
2018-07-11T20:15:22.715Z,66.10
2018-07-11T20:17:51.490Z,66.10
2018-07-11T20:20:19.935Z,66.00
2018-07-11T20:22:48.475Z,66.60
2018-07-11T20:25:16.881Z,66.10
2018-07-11T20:27:45.305Z,66.10
2018-07-11T20:30:13.801Z,66.10
2018-07-11T20:32:42.233Z,66.10
2018-07-11T20:35:10.741Z,66.00
2018-07-11T20:37:39.642Z,66.00
2018-07-11T20:40:08.834Z,65.90
2018-07-11T20:42:37.935Z,65.90
2018-07-11T20:45:07.484Z,66.00
2018-07-11T20:47:35.965Z,65.90
2018-07-11T20:50:04.583Z,65.90
2018-07-11T20:52:33.038Z,65.90
2018-07-11T20:55:01.469Z,65.90
2018-07-11T20:57:29.900Z,65.90
2018-07-11T21:00:09.787Z,65.90
2018-07-11T21:02:57.394Z,66.00
2018-07-11T21:05:35.703Z,66.00
2018-07-11T21:08:16.340Z,66.00
2018-07-11T21:18:22.564Z,66.00
2018-07-11T21:23:25.254Z,66.10
2018-07-11T21:25:53.777Z,66.20
2018-07-11T21:28:22.221Z,66.10
2018-07-11T21:35:50.264Z,66.70
2018-07-11T21:38:18.685Z,66.10
2018-07-11T21:40:47.151Z,66.10
2018-07-11T21:43:15.598Z,66.10
2018-07-11T21:45:44.013Z,66.00
2018-07-11T21:48:12.445Z,66.00
2018-07-11T21:50:40.871Z,66.00
2018-07-11T21:53:10.639Z,66.00
2018-07-11T21:55:39.647Z,66.00
2018-07-11T21:58:08.765Z,66.10
2018-07-11T22:00:40.252Z,66.00
2018-07-11T22:03:10.381Z,66.00
2018-07-11T22:05:39.389Z,66.00
2018-07-11T22:08:08.682Z,66.10
2018-07-11T22:10:38.684Z,66.00
2018-07-11T22:13:07.908Z,66.10
2018-07-11T22:15:37.122Z,66.10
2018-07-11T22:18:17.238Z,66.10
2018-07-11T22:20:44.597Z,66.10
2018-07-11T22:23:11.949Z,66.10
2018-07-11T22:25:39.308Z,66.10
2018-07-11T22:28:07.112Z,66.10
2018-07-11T22:30:34.474Z,66.10
2018-07-11T22:33:01.880Z,66.10
2018-07-11T22:35:29.242Z,66.10
2018-07-11T22:37:56.613Z,66.10
2018-07-11T22:40:23.977Z,66.10
2018-07-11T22:42:51.332Z,66.40
2018-07-11T22:45:18.705Z,66.10
2018-07-11T22:47:46.070Z,66.20
2018-07-11T22:50:13.425Z,66.10
2018-07-11T22:52:41.141Z,66.10
2018-07-11T22:55:08.532Z,66.10
2018-07-11T22:57:35.878Z,66.00
2018-07-11T23:00:03.231Z,66.10
2018-07-11T23:02:30.585Z,66.00
2018-07-11T23:04:57.940Z,66.30
2018-07-11T23:07:25.290Z,66.10
2018-07-11T23:09:52.641Z,66.10
2018-07-11T23:12:19.996Z,66.70
2018-07-11T23:14:47.553Z,66.00
2018-07-11T23:17:14.899Z,66.00
2018-07-11T23:19:42.242Z,66.00
2018-07-11T23:22:09.660Z,66.00
2018-07-11T23:24:37.513Z,66.00
2018-07-11T23:27:04.857Z,66.00
2018-07-11T23:29:32.201Z,66.00
2018-07-11T23:31:59.659Z,66.00
2018-07-11T23:34:27.010Z,66.00
2018-07-11T23:36:54.359Z,66.00
2018-07-11T23:39:21.701Z,66.00
2018-07-11T23:41:49.077Z,66.00
2018-07-11T23:44:16.429Z,66.00
2018-07-11T23:46:44.305Z,66.00
2018-07-11T23:49:11.653Z,66.00
2018-07-11T23:51:39.743Z,66.00
2018-07-11T23:54:08.060Z,65.90
2018-07-11T23:56:35.407Z,66.00
2018-07-11T23:59:02.770Z,65.90
